»·PEaware :: UAL1831 KSFO-KLAX

UAL1831 :: KSFO-KLAX

FLIGHT INFORMATION

Flight Status: Arrived
Operator:
United Airlines
More flights by this operator :: More flights under this callsign
Pilot: Teddy R. (19120)
Aircraft: BOEING 737-900
(B739)
More flights by this aircraft type
Origin: KSFO San Francisco Intl
United States
Destination: KLAX Los Angeles Intl
United States
More flights between these airports :: More routes between these airports
Route: +SSTIK3 EBAYE BURGL IRNMN1
File this flight plan on PilotEdge
Remarks:
Altitude:
(Current/Filed)
29,000ft
Speed:
(Current/Filed)
519kts
Departed: 05-May-18 08:14 PM
Arrived: 05-May-18 09:26 PM
Distance/Time
Traveled:
293nm/1:11
Distance/Time
To Go:
Arrived

Flight Plot

Page will automatically refresh every two minutes.

Flight plan parsing failed; only flown route is shown


Map Options




Map Legend


Flown Route
Filed Route
Departure Airport
Arrival Airport
Navaid (VOR, NDB)
Fix

Horizontal Profiles

Position Reports

Time Latitude Longitude Heading Altitude Ground
Speed
05-May-18 19:45 37.619701 -122.388282 26 31ft 0kts
05-May-18 19:46 37.619701 -122.388282 26 31ft 0kts
05-May-18 19:46 37.619701 -122.388282 26 31ft 0kts
05-May-18 19:47 37.619701 -122.388282 26 31ft 0kts
05-May-18 19:48 37.619700 -122.388282 26 31ft 0kts
05-May-18 19:49 37.619700 -122.388282 26 31ft 0kts
05-May-18 19:50 37.619700 -122.388282 26 31ft 0kts
05-May-18 19:51 37.619700 -122.388282 26 31ft 0kts
05-May-18 19:52 37.619700 -122.388282 26 31ft 0kts
05-May-18 19:53 37.619555 -122.388373 26 31ft 2kts
05-May-18 19:54 37.619059 -122.388455 309 31ft 2kts
05-May-18 19:55 37.619058 -122.388942 294 31ft 5kts
05-May-18 19:56 37.619293 -122.389503 298 31ft 0kts
05-May-18 19:57 37.619294 -122.389504 298 31ft 0kts
05-May-18 19:58 37.620017 -122.391219 297 30ft 7kts
05-May-18 19:59 37.620136 -122.391505 298 31ft 1kts
05-May-18 20:00 37.622374 -122.390654 71 29ft 15kts
05-May-18 20:01 37.621954 -122.387490 118 30ft 6kts
05-May-18 20:02 37.620659 -122.384393 118 31ft 13kts
05-May-18 20:03 37.618513 -122.379887 145 30ft 16kts
05-May-18 20:04 37.615112 -122.380629 208 31ft 10kts
05-May-18 20:05 37.612100 -122.382627 208 31ft 8kts
05-May-18 20:06 37.609845 -122.384281 216 31ft 10kts
05-May-18 20:07 37.608424 -122.383767 118 31ft 0kts
05-May-18 20:08 37.608424 -122.383766 117 31ft 0kts
05-May-18 20:09 37.608424 -122.383766 117 31ft 0kts
05-May-18 20:10 37.608424 -122.383766 118 31ft 0kts
05-May-18 20:11 37.608413 -122.383739 118 31ft 1kts
05-May-18 20:12 37.608820 -122.382331 28 29ft 26kts
05-May-18 20:13 37.638908 -122.363751 14 896ft 164kts
05-May-18 20:14 37.691747 -122.364109 334 3895ft 207kts
05-May-18 20:15 37.690416 -122.442000 222 6816ft 282kts
05-May-18 20:16 37.614283 -122.465067 183 9711ft 312kts
05-May-18 20:17 37.527272 -122.471909 183 9854ft 315kts
05-May-18 20:18 37.452607 -122.428502 132 12217ft 323kts
05-May-18 20:19 37.391058 -122.343291 131 15651ft 341kts
05-May-18 20:20 37.326004 -122.254323 131 18765ft 358kts
05-May-18 20:21 37.257298 -122.160941 131 21652ft 372kts
05-May-18 20:22 37.185359 -122.063778 131 24206ft 386kts
05-May-18 20:23 37.110692 -121.963177 132 26375ft 403kts
05-May-18 20:25 37.033355 -121.859371 132 28443ft 415kts
05-May-18 20:26 36.952353 -121.751049 132 28929ft 442kts
05-May-18 20:27 36.868122 -121.638876 132 28963ft 462kts
05-May-18 20:28 36.779729 -121.521637 132 28968ft 465kts
05-May-18 20:29 36.702159 -121.419014 132 28963ft 462kts
05-May-18 20:30 36.629064 -121.322662 133 28967ft 465kts
05-May-18 20:31 36.540290 -121.205891 133 28967ft 466kts
05-May-18 20:32 36.451367 -121.089502 132 28959ft 463kts
05-May-18 20:33 36.365878 -120.970341 129 28955ft 465kts
05-May-18 20:34 36.281912 -120.849302 129 28956ft 464kts
05-May-18 20:35 36.197460 -120.728332 130 28953ft 462kts
05-May-18 20:36 36.113104 -120.608099 130 28958ft 463kts
05-May-18 20:37 36.028508 -120.488121 130 28964ft 466kts
05-May-18 20:38 35.943825 -120.368252 129 28966ft 463kts
05-May-18 20:39 35.870844 -120.266547 136 28959ft 464kts
05-May-18 20:40 35.762008 -120.181900 147 28982ft 465kts
05-May-18 20:41 35.651646 -120.098367 148 28988ft 468kts
05-May-18 20:42 35.541773 -120.015416 147 28981ft 465kts
05-May-18 20:43 35.431614 -119.932469 147 28987ft 468kts
05-May-18 20:44 35.321022 -119.849551 147 28975ft 466kts
05-May-18 20:45 35.218555 -119.762297 141 28978ft 463kts
05-May-18 20:46 35.116354 -119.665414 141 28986ft 466kts
05-May-18 20:47 35.013926 -119.569589 142 28989ft 465kts
05-May-18 20:48 34.910886 -119.473937 141 28996ft 468kts
05-May-18 20:49 34.807993 -119.381606 142 28870ft 468kts
05-May-18 20:50 34.712135 -119.296627 143 26207ft 461kts
05-May-18 20:51 34.609817 -119.207956 144 23275ft 439kts
05-May-18 20:52 34.518322 -119.128127 143 20954ft 376kts
05-May-18 20:53 34.433683 -119.053218 143 19034ft 376kts
05-May-18 20:54 34.350740 -118.981283 143 17192ft 362kts
05-May-18 20:55 34.271098 -118.909607 142 15387ft 352kts
05-May-18 20:56 34.196843 -118.841524 141 13704ft 314kts
05-May-18 20:57 34.130267 -118.775601 136 12269ft 308kts
05-May-18 20:58 34.067562 -118.706908 136 10913ft 304kts
05-May-18 20:59 34.021120 -118.627847 94 9600ft 293kts
05-May-18 21:00 34.014928 -118.532952 93 8999ft 269kts
05-May-18 21:01 34.007993 -118.441480 84 7283ft 267kts
05-May-18 21:02 34.023534 -118.363518 75 6061ft 223kts
05-May-18 21:03 34.031307 -118.296486 83 5262ft 221kts
05-May-18 21:04 34.037276 -118.223715 83 4647ft 228kts
05-May-18 21:05 34.022759 -118.152690 145 3679ft 240kts
05-May-18 21:06 33.964769 -118.157841 247 3627ft 218kts
05-May-18 21:07 33.953387 -118.225661 262 3392ft 240kts
05-May-18 21:08 33.944399 -118.308613 267 2378ft 227kts
05-May-18 21:09 33.937445 -118.383401 265 2017ft 210kts
05-May-18 21:10 33.931531 -118.457770 266 2851ft 241kts
05-May-18 21:11 33.925651 -118.540260 267 3003ft 242kts
05-May-18 21:12 33.914039 -118.619344 223 3006ft 246kts
05-May-18 21:13 33.869668 -118.590854 86 3043ft 237kts
05-May-18 21:14 33.876567 -118.512853 82 3007ft 231kts
05-May-18 21:15 33.884338 -118.435509 81 3009ft 231kts
05-May-18 21:16 33.891984 -118.357973 82 3004ft 234kts
05-May-18 21:17 33.899695 -118.280782 82 3013ft 233kts
05-May-18 21:18 33.911785 -118.206651 43 2980ft 214kts
05-May-18 21:19 33.963591 -118.190786 22 2997ft 182kts
05-May-18 21:20 33.963500 -118.152815 180 2997ft 174kts
05-May-18 21:21 33.941320 -118.197566 269 3004ft 171kts
05-May-18 21:22 33.946207 -118.256950 274 2372ft 196kts
05-May-18 21:23 33.942959 -118.315209 269 1663ft 169kts
05-May-18 21:24 33.938463 -118.371108 265 383ft 165kts
05-May-18 21:25 33.934189 -118.413498 264 126ft 57kts
05-May-18 21:26 33.934935 -118.419053 355 118ft 1kts
05-May-18 21:27 33.937788 -118.417808 83 120ft 21kts
05-May-18 21:28 33.938543 -118.410413 82 125ft 26kts
05-May-18 21:29 33.939348 -118.402510 82 119ft 28kts
05-May-18 21:30 33.941163 -118.398233 355 113ft 9kts
05-May-18 21:31 33.942242 -118.397836 85 112ft 0kts
05-May-18 21:32 33.942242 -118.397835 85 112ft 0kts
05-May-18 21:33 33.942242 -118.397835 85 112ft 0kts
05-May-18 21:34 33.942242 -118.397835 85 112ft 0kts

Navigation Log

Ident Type
Flight plan parsing failed, navigation log unavailable